New Creek, West Virginia
Current Conditions -  °F | °C
As of 8:45 PM on Monday 20 Oct 2014 (Local Time) from K2G4 Reporting Station
Overcast Overcast  
Wind Chill: 41°   Ceiling: 7500
Heat Index: 46°   Visibility: 10mi
Dew Point: 43°   Wind: 10mph
Humidity: 87%   Direction: 230°SW
Pressure: 29.93"   Gusts: NA
Location:  39.37°N, 79.03°W
Report Text: K2G4 210045Z AUTO 23009KT 10SM BKN075 OVC110 08/06 A2993 RMK AO1
Loading
Personal Weather Stations






























Interactive Weather Map
Tropical Storm Tracking
New forecast layout! Learn more

10-Day Weather Forecast

Advertisements
Track Severe Weather on mobile